Time;durP1;ratioP1;P1;durP2;ratioP2;P2;SDS_P1;SDS_P2;PMS_P1;PMS_P2;Temp;Humidity;BMP_temperature;BMP_pressure;BME280_temperature;BME280_humidity;BME280_pressure;Samples;Min_cycle;Max_cycle;Signal;HPM_P1;HPM_P2
2021/11/19 00:00:44;;;;;;;22.40;7.90;;;;;;;7.15;69.43;99424.55;102848;1320;96452;-71
2021/11/19 00:03:15;;;;;;;22.50;8.60;;;;;;;7.16;69.24;99425.74;102895;1319;111669;-72
2021/11/19 00:05:46;;;;;;;19.40;7.10;;;;;;;7.18;69.47;99427.23;102797;1320;97402;-71
2021/11/19 00:08:25;;;;;;;20.10;7.40;;;;;;;7.20;69.31;99431.36;102718;1322;107145;-71
2021/11/19 00:10:59;;;;;;;20.60;7.00;;;;;;;7.22;69.50;99429.88;102893;1323;97939;-72
2021/11/19 00:13:29;;;;;;;22.90;8.30;;;;;;;7.22;69.18;99426.66;102604;1324;96059;-72
2021/11/19 00:15:59;;;;;;;19.50;7.50;;;;;;;7.23;69.44;99423.97;102734;1321;111544;-71
2021/11/19 00:18:27;;;;;;;21.20;7.40;;;;;;;7.24;69.48;99426.73;102906;1319;97937;-70
2021/11/19 00:20:59;;;;;;;20.80;7.20;;;;;;;7.25;69.39;99430.93;102847;1318;107886;-71
2021/11/19 00:23:29;;;;;;;19.10;6.80;;;;;;;7.26;69.38;99429.63;102893;1325;96031;-72
2021/11/19 00:25:59;;;;;;;23.60;8.60;;;;;;;7.25;69.08;99429.86;102873;1320;97080;-70
2021/11/19 00:28:29;;;;;;;19.40;7.70;;;;;;;7.24;69.13;99430.46;102720;1326;111339;-70
2021/11/19 00:30:57;;;;;;;19.80;7.50;;;;;;;7.22;68.89;99428.42;102837;1318;95308;-70
2021/11/19 00:33:25;;;;;;;22.10;6.90;;;;;;;7.21;69.15;99423.05;102939;1318;107684;-70
2021/11/19 00:35:53;;;;;;;21.40;7.90;;;;;;;7.19;68.96;99422.08;102866;1326;95212;-71
2021/11/19 00:38:27;;;;;;;23.30;7.60;;;;;;;7.15;68.80;99416.63;102908;1321;97919;-70
2021/11/19 00:41:01;;;;;;;21.70;7.50;;;;;;;7.11;68.99;99417.70;102799;1319;111512;-70
2021/11/19 00:43:29;;;;;;;22.30;7.60;;;;;;;7.09;69.00;99420.86;102724;1321;97876;-70
2021/11/19 00:45:59;;;;;;;20.30;7.70;;;;;;;7.08;68.82;99424.26;102832;1319;107598;-71
2021/11/19 00:48:32;;;;;;;20.20;8.80;;;;;;;7.06;68.79;99418.88;102879;1324;97927;-71
2021/11/19 00:51:10;;;;;;;22.20;7.60;;;;;;;7.04;68.92;99415.29;102899;1320;97999;-72
2021/11/19 00:53:43;;;;;;;18.10;7.60;;;;;;;7.02;68.97;99407.95;102818;1321;111492;-72
2021/11/19 00:56:18;;;;;;;18.00;7.30;;;;;;;7.01;68.93;99406.45;102866;1319;97897;-71
2021/11/19 00:58:51;;;;;;;20.90;7.70;;;;;;;6.99;68.95;99402.47;102818;1319;107861;-71
2021/11/19 01:01:30;;;;;;;21.40;8.00;;;;;;;6.95;68.86;99401.77;102835;1313;98012;-71
2021/11/19 01:04:03;;;;;;;19.50;7.90;;;;;;;6.93;69.04;99399.09;102910;1319;95986;-71
2021/11/19 01:06:32;;;;;;;21.90;7.30;;;;;;;6.92;69.24;99403.02;102935;1319;111532;-71
2021/11/19 01:09:34;;;;;;;19.60;7.50;;;;;;;6.90;69.04;99400.66;102759;1318;97906;-71
2021/11/19 01:12:08;;;;;;;22.20;8.40;;;;;;;6.86;69.18;99394.70;102834;1318;107950;-72
2021/11/19 01:14:54;;;;;;;18.00;7.00;;;;;;;6.83;69.01;99388.50;102641;1322;98128;-72
2021/11/19 01:17:49;;;;;;;19.80;7.50;;;;;;;6.80;69.16;99381.79;102796;1321;98005;-71
2021/11/19 01:20:26;;;;;;;18.70;7.50;;;;;;;6.78;69.22;99379.23;102840;1325;111573;-72
2021/11/19 01:22:59;;;;;;;20.10;7.90;;;;;;;6.77;69.25;99382.85;102793;1322;97906;-72
2021/11/19 01:25:32;;;;;;;16.50;6.90;;;;;;;6.75;69.12;99382.02;102718;1321;107659;-72
2021/11/19 01:28:04;;;;;;;22.80;7.30;;;;;;;6.75;69.37;99386.09;102873;1322;96134;-71
2021/11/19 01:30:38;;;;;;;17.70;8.10;;;;;;;6.75;69.43;99379.23;102926;1318;95320;-72
2021/11/19 01:33:09;;;;;;;19.70;7.20;;;;;;;6.74;69.38;99369.57;102977;1325;111589;-73
2021/11/19 01:35:40;;;;;;;19.50;7.60;;;;;;;6.73;69.31;99359.39;102797;1325;97895;-71
2021/11/19 01:38:10;;;;;;;19.70;7.40;;;;;;;6.73;69.21;99357.65;102888;1319;107605;-72
2021/11/19 01:40:47;;;;;;;16.70;6.70;;;;;;;6.73;69.19;99346.21;102758;1325;97921;-73
2021/11/19 01:43:17;;;;;;;14.60;7.00;;;;;;;6.72;69.47;99340.06;102912;1318;96284;-71
2021/11/19 01:45:52;;;;;;;16.10;6.70;;;;;;;6.73;69.12;99337.05;102869;1318;111538;-71
2021/11/19 01:48:28;;;;;;;15.10;6.80;;;;;;;6.73;69.45;99329.77;102770;1322;97909;-71
2021/11/19 01:51:02;;;;;;;18.30;7.10;;;;;;;6.74;69.46;99331.68;102838;1320;107477;-72
2021/11/19 01:53:35;;;;;;;19.90;6.90;;;;;;;6.74;69.48;99331.35;102790;1323;97971;-72
2021/11/19 01:56:19;;;;;;;18.60;6.70;;;;;;;6.74;69.34;99342.60;102805;1322;96442;-73
2021/11/19 01:58:53;;;;;;;17.30;6.00;;;;;;;6.75;69.51;99337.10;102805;1322;111533;-72
2021/11/19 02:01:45;;;;;;;16.60;6.70;;;;;;;6.75;69.69;99330.06;102737;1322;97948;-72
2021/11/19 02:04:19;;;;;;;18.60;7.30;;;;;;;6.75;69.36;99320.52;102941;1319;107843;-73
2021/11/19 02:07:00;;;;;;;16.10;7.00;;;;;;;6.75;69.60;99322.60;102870;1319;98426;-72
2021/11/19 02:09:50;;;;;;;17.60;6.60;;;;;;;6.77;69.37;99322.70;102851;1322;97344;-74
2021/11/19 02:12:39;;;;;;;17.80;7.30;;;;;;;6.78;69.53;99317.02;102460;1319;110510;-72
2021/11/19 02:15:27;;;;;;;16.50;6.70;;;;;;;6.79;69.46;99309.92;102833;1320;97799;-72
2021/11/19 02:18:04;;;;;;;16.90;6.70;;;;;;;6.80;69.66;99303.16;102851;1321;107872;-70
2021/11/19 02:20:38;;;;;;;16.00;6.70;;;;;;;6.81;69.69;99302.20;102995;1321;96713;-71
2021/11/19 02:23:12;;;;;;;16.10;5.90;;;;;;;6.82;69.46;99302.02;102896;1319;97873;-72
2021/11/19 02:25:53;;;;;;;15.40;5.90;;;;;;;6.83;69.54;99295.25;102942;1318;111513;-72
2021/11/19 02:28:29;;;;;;;17.10;6.50;;;;;;;6.84;69.64;99290.63;102911;1318;97964;-71
2021/11/19 02:31:18;;;;;;;14.30;6.10;;;;;;;6.85;69.51;99292.70;102767;1322;108259;-72
2021/11/19 02:33:49;;;;;;;19.00;6.20;;;;;;;6.87;69.59;99293.83;102667;1321;98625;-71
2021/11/19 02:36:33;;;;;;;16.10;6.50;;;;;;;6.87;69.65;99296.63;102626;1322;97967;-70
2021/11/19 02:39:18;;;;;;;19.60;6.70;;;;;;;6.90;69.64;99296.51;102776;1321;112055;-72
2021/11/19 02:41:52;;;;;;;15.60;5.80;;;;;;;6.90;69.56;99291.73;102797;1319;98689;-72
2021/11/19 02:44:23;;;;;;;15.90;6.30;;;;;;;6.91;69.62;99290.41;102731;1318;107612;-71
2021/11/19 02:46:58;;;;;;;16.20;6.20;;;;;;;6.93;69.64;99280.13;102779;1319;97814;-71
2021/11/19 02:49:26;;;;;;;15.60;6.10;;;;;;;6.93;69.59;99277.06;102687;1321;123780;-72
2021/11/19 02:51:54;;;;;;;14.80;6.00;;;;;;;6.94;69.36;99270.15;102701;1321;111382;-71
2021/11/19 02:54:26;;;;;;;17.60;5.90;;;;;;;6.94;69.50;99262.37;102791;1320;95273;-71
2021/11/19 02:56:55;;;;;;;17.30;6.10;;;;;;;6.95;69.61;99267.11;102660;1318;107455;-71
2021/11/19 02:59:24;;;;;;;12.10;5.50;;;;;;;6.96;69.58;99261.94;102810;1321;98079;-71
2021/11/19 03:01:56;;;;;;;17.10;6.10;;;;;;;6.97;69.41;99258.69;102815;1321;97858;-71
2021/11/19 03:04:26;;;;;;;16.20;6.20;;;;;;;6.98;69.43;99258.10;102798;1319;111512;-73
2021/11/19 03:06:57;;;;;;;18.90;6.70;;;;;;;6.99;69.53;99253.65;102760;1319;97908;-72
2021/11/19 03:09:30;;;;;;;17.40;6.20;;;;;;;7.00;69.34;99254.30;102784;1324;107848;-73
2021/11/19 03:11:59;;;;;;;15.50;6.10;;;;;;;7.02;69.43;99255.98;102829;1322;98506;-74
2021/11/19 03:14:27;;;;;;;17.80;5.90;;;;;;;7.04;69.28;99263.83;102865;1322;98592;-71
2021/11/19 03:16:56;;;;;;;16.50;6.20;;;;;;;7.04;69.46;99260.80;102770;1321;111606;-72
2021/11/19 03:19:25;;;;;;;16.10;5.90;;;;;;;7.05;69.50;99252.14;102849;1319;97938;-71
2021/11/19 03:21:54;;;;;;;14.40;6.10;;;;;;;7.06;69.29;99247.15;102764;1319;107857;-72
2021/11/19 03:24:24;;;;;;;15.90;6.30;;;;;;;7.05;69.43;99244.17;102776;1323;97163;-71
2021/11/19 03:26:55;;;;;;;14.10;6.00;;;;;;;7.06;69.20;99241.13;102910;1319;96728;-72
2021/11/19 03:29:24;;;;;;;14.00;5.60;;;;;;;7.05;69.25;99226.52;102847;1319;111164;-71
2021/11/19 03:31:54;;;;;;;14.20;6.00;;;;;;;7.05;69.20;99215.98;102778;1318;98044;-72
2021/11/19 03:34:23;;;;;;;19.20;6.60;;;;;;;7.05;69.20;99209.11;102852;1318;107474;-72
2021/11/19 03:36:54;;;;;;;15.30;5.90;;;;;;;7.05;69.28;99211.57;102792;1319;97918;-72
2021/11/19 03:39:25;;;;;;;14.20;5.70;;;;;;;7.04;69.14;99216.55;102737;1322;97978;-73
2021/11/19 03:41:56;;;;;;;13.90;5.70;;;;;;;7.04;69.22;99217.41;102768;1319;110524;-72
2021/11/19 03:44:30;;;;;;;16.40;5.90;;;;;;;7.05;69.02;99213.17;102863;1321;95385;-73
2021/11/19 03:47:06;;;;;;;13.10;5.60;;;;;;;7.05;69.09;99213.70;102660;1321;107871;-71
2021/11/19 03:49:38;;;;;;;15.40;5.60;;;;;;;7.06;69.22;99219.47;102780;1318;95295;-71
2021/11/19 03:52:12;;;;;;;16.20;6.20;;;;;;;7.07;69.15;99215.13;102791;1319;97060;-72
2021/11/19 03:54:42;;;;;;;15.00;5.90;;;;;;;7.09;69.24;99206.41;102769;1318;111476;-71
2021/11/19 03:57:13;;;;;;;15.00;5.30;;;;;;;7.09;69.11;99206.25;102870;1321;97947;-72
2021/11/19 03:59:41;;;;;;;12.40;5.20;;;;;;;7.09;69.23;99204.79;102787;1318;107912;-72
2021/11/19 04:02:11;;;;;;;16.10;6.10;;;;;;;7.10;69.09;99202.30;102732;1321;97783;-73
2021/11/19 04:04:41;;;;;;;13.40;5.20;;;;;;;7.10;69.17;99192.23;102714;1323;97992;-72
2021/11/19 04:07:15;;;;;;;16.50;5.70;;;;;;;7.10;69.16;99195.39;102620;1321;112162;-71
2021/11/19 04:09:44;;;;;;;17.30;6.00;;;;;;;7.11;69.41;99196.58;102774;1318;97990;-71
2021/11/19 04:12:15;;;;;;;16.80;5.60;;;;;;;7.12;69.16;99188.79;102529;1326;106840;-71
2021/11/19 04:14:43;;;;;;;15.00;6.10;;;;;;;7.12;69.23;99181.87;102781;1318;98733;-73
2021/11/19 04:17:11;;;;;;;16.70;6.30;;;;;;;7.12;69.10;99183.32;102760;1320;98934;-72
2021/11/19 04:19:39;;;;;;;19.20;5.80;;;;;;;7.13;69.16;99182.20;102676;1321;109826;-73
2021/11/19 04:22:11;;;;;;;14.60;5.50;;;;;;;7.13;69.10;99171.94;102746;1322;97991;-73
2021/11/19 04:24:51;;;;;;;16.70;6.90;;;;;;;7.14;69.31;99179.83;102717;1319;107929;-72
2021/11/19 04:27:20;;;;;;;17.70;6.40;;;;;;;7.15;69.31;99188.60;102757;1319;97914;-72
2021/11/19 04:29:49;;;;;;;13.80;5.80;;;;;;;7.14;69.17;99186.36;102812;1322;95310;-72
2021/11/19 04:32:22;;;;;;;13.80;5.90;;;;;;;7.11;69.36;99184.08;102631;1321;112495;-71
2021/11/19 04:34:52;;;;;;;14.40;5.40;;;;;;;7.10;69.23;99185.55;102807;1319;96643;-71
2021/11/19 04:37:21;;;;;;;18.20;6.10;;;;;;;7.08;69.23;99182.32;102799;1321;107869;-72
2021/11/19 04:39:49;;;;;;;16.40;6.80;;;;;;;7.06;69.44;99183.66;102419;1322;98497;-71
2021/11/19 04:42:21;;;;;;;19.20;6.90;;;;;;;7.05;69.32;99192.02;102469;1322;97888;-71
2021/11/19 04:44:49;;;;;;;17.10;6.60;;;;;;;7.01;69.21;99195.02;102726;1325;111525;-69
2021/11/19 04:47:18;;;;;;;15.50;6.50;;;;;;;6.97;69.33;99198.61;102695;1319;97912;-73
2021/11/19 04:49:46;;;;;;;14.50;5.90;;;;;;;6.92;69.25;99199.77;102813;1318;107899;-71
2021/11/19 04:52:15;;;;;;;16.20;6.50;;;;;;;6.90;69.53;99201.26;102762;1319;97892;-70
2021/11/19 04:54:44;;;;;;;15.50;6.80;;;;;;;6.85;69.49;99203.82;102801;1318;95316;-70
2021/11/19 04:57:12;;;;;;;14.80;7.00;;;;;;;6.80;69.50;99207.98;102888;1318;111370;-71
2021/11/19 04:59:41;;;;;;;16.30;6.80;;;;;;;6.77;69.62;99208.65;102708;1319;96563;-72
2021/11/19 05:02:13;;;;;;;17.60;6.80;;;;;;;6.76;69.67;99209.10;102782;1325;107833;-72
2021/11/19 05:04:42;;;;;;;17.00;6.60;;;;;;;6.73;69.63;99203.80;102862;1319;98293;-73
2021/11/19 05:07:10;;;;;;;18.40;7.10;;;;;;;6.69;69.89;99195.35;102880;1319;97964;-72
2021/11/19 05:09:38;;;;;;;18.40;7.40;;;;;;;6.64;69.96;99186.50;102822;1325;111508;-72
2021/11/19 05:12:08;;;;;;;15.40;6.60;;;;;;;6.61;69.85;99193.70;102783;1318;97976;-72
2021/11/19 05:14:37;;;;;;;18.60;7.20;;;;;;;6.58;69.86;99201.92;102848;1323;107818;-72
2021/11/19 05:17:08;;;;;;;14.90;6.70;;;;;;;6.55;69.89;99204.37;102888;1320;95395;-73
2021/11/19 05:19:37;;;;;;;17.60;7.10;;;;;;;6.51;70.11;99199.52;102830;1321;97935;-72
2021/11/19 05:22:06;;;;;;;19.30;7.30;;;;;;;6.46;70.13;99207.86;102890;1318;111512;-72
2021/11/19 05:24:36;;;;;;;20.70;7.70;;;;;;;6.42;70.20;99203.67;102804;1322;97958;-72
2021/11/19 05:27:05;;;;;;;18.40;7.10;;;;;;;6.37;70.34;99192.81;102728;1325;107754;-72
2021/11/19 05:29:33;;;;;;;16.50;7.30;;;;;;;6.34;70.11;99188.95;102920;1318;97938;-72
2021/11/19 05:32:03;;;;;;;18.80;7.00;;;;;;;6.32;70.15;99188.00;102939;1319;98101;-70
2021/11/19 05:34:32;;;;;;;15.10;6.90;;;;;;;6.31;70.45;99190.67;102723;1321;111522;-72
2021/11/19 05:37:01;;;;;;;16.50;6.10;;;;;;;6.29;70.42;99186.55;102874;1319;97819;-72
2021/11/19 05:39:30;;;;;;;16.10;6.60;;;;;;;6.30;70.40;99189.38;102928;1324;107493;-72
2021/11/19 05:41:58;;;;;;;16.20;6.50;;;;;;;6.28;70.46;99188.74;102814;1322;97925;-71
2021/11/19 05:44:26;;;;;;;17.20;7.00;;;;;;;6.27;70.63;99188.96;102881;1324;97965;-71
2021/11/19 05:46:55;;;;;;;13.80;6.30;;;;;;;6.23;70.65;99185.65;102945;1321;111222;-71
2021/11/19 05:49:24;;;;;;;17.30;6.60;;;;;;;6.22;70.77;99192.91;102991;1318;95210;-70
2021/11/19 05:51:54;;;;;;;14.80;6.50;;;;;;;6.21;70.78;99191.91;102897;1318;107773;-71
2021/11/19 05:54:26;;;;;;;15.90;6.60;;;;;;;6.21;70.91;99203.02;102936;1318;97910;-71
2021/11/19 05:56:55;;;;;;;13.90;7.30;;;;;;;6.21;71.09;99207.25;102954;1318;97886;-71
2021/11/19 05:59:24;;;;;;;14.60;6.00;;;;;;;6.21;71.06;99207.40;102954;1318;111523;-71
2021/11/19 06:01:52;;;;;;;15.90;6.70;;;;;;;6.22;71.11;99206.98;102912;1321;97893;-71
2021/11/19 06:04:20;;;;;;;14.60;6.20;;;;;;;6.22;71.22;99209.46;102936;1318;107800;-71
2021/11/19 06:06:48;;;;;;;15.00;5.70;;;;;;;6.22;71.42;99211.94;102897;1325;98098;-71
2021/11/19 06:09:27;;;;;;;14.50;6.40;;;;;;;6.22;71.41;99209.98;102940;1318;96662;-71
2021/11/19 06:12:02;;;;;;;12.10;5.40;;;;;;;6.23;71.58;99212.94;102950;1318;111186;-71
2021/11/19 06:14:30;;;;;;;14.20;5.70;;;;;;;6.24;71.54;99220.30;102989;1319;95257;-72
2021/11/19 06:17:02;;;;;;;14.50;5.60;;;;;;;6.24;71.72;99224.70;102978;1318;107914;-77
2021/11/19 06:19:34;;;;;;;15.00;6.00;;;;;;;6.24;71.84;99228.21;102976;1325;97935;-72
2021/11/19 06:22:15;;;;;;;14.70;5.70;;;;;;;6.23;71.68;99228.44;102902;1320;98351;-72
2021/11/19 06:24:46;;;;;;;10.60;4.60;;;;;;;6.24;71.69;99225.94;102804;1321;111411;-71
2021/11/19 06:27:22;;;;;;;13.10;5.90;;;;;;;6.24;71.94;99224.50;102883;1321;97975;-72
2021/11/19 06:29:55;;;;;;;13.30;5.50;;;;;;;6.27;71.85;99223.32;102796;1318;107868;-73
2021/11/19 06:32:25;;;;;;;16.60;6.20;;;;;;;6.27;72.13;99224.39;102664;1321;97098;-71
2021/11/19 06:34:56;;;;;;;;;;;;;;;6.28;72.29;99227.31;102910;1319;97875;-72
2021/11/19 06:37:25;;;;;;;13.90;5.10;;;;;;;6.28;72.28;99226.77;102853;1319;111537;-72
2021/11/19 06:39:55;;;;;;;10.30;4.80;;;;;;;6.32;72.40;99227.66;102862;1319;95248;-71
2021/11/19 06:42:23;;;;;;;11.30;4.90;;;;;;;6.33;72.34;99233.02;102770;1321;108953;-72
2021/11/19 06:44:51;;;;;;;10.20;5.20;;;;;;;6.37;72.08;99239.70;102895;1318;99206;-74
2021/11/19 06:47:19;;;;;;;12.40;4.90;;;;;;;6.38;72.27;99242.81;102874;1318;97876;-76
2021/11/19 06:49:47;;;;;;;11.80;5.00;;;;;;;6.38;72.23;99242.44;102874;1318;110285;-71
2021/11/19 06:52:15;;;;;;;10.40;4.80;;;;;;;6.40;72.67;99246.77;102958;1325;98701;-76
2021/11/19 06:54:43;;;;;;;10.60;4.70;;;;;;;6.41;72.94;99236.52;103001;1319;107477;-73
2021/11/19 06:57:11;;;;;;;11.70;4.80;;;;;;;6.40;72.93;99237.77;103038;1318;97886;-74
2021/11/19 06:59:42;;;;;;;10.80;4.50;;;;;;;6.43;72.83;99233.05;102943;1322;97926;-75
2021/11/19 07:02:11;;;;;;;9.10;4.30;;;;;;;6.45;72.89;99234.89;102360;1320;112218;-76
2021/11/19 07:04:39;;;;;;;12.50;5.00;;;;;;;6.46;72.71;99235.03;102574;1318;95302;-74
2021/11/19 07:07:08;;;;;;;12.70;5.10;;;;;;;6.47;72.71;99224.90;102712;1320;107827;-75
2021/11/19 07:09:38;;;;;;;10.00;4.80;;;;;;;6.49;73.07;99224.48;102777;1318;98640;-75
2021/11/19 07:12:10;;;;;;;10.10;4.50;;;;;;;6.51;73.14;99227.86;102866;1316;98012;-76
2021/11/19 07:14:40;;;;;;;10.50;5.00;;;;;;;6.52;73.13;99228.67;102811;1325;111524;-74
2021/11/19 07:17:09;;;;;;;10.40;4.90;;;;;;;6.52;73.11;99226.77;102835;1319;98022;-75
2021/11/19 07:19:39;;;;;;;13.80;5.60;;;;;;;6.53;73.32;99230.23;102732;1320;107972;-74
2021/11/19 07:22:08;;;;;;;11.80;5.10;;;;;;;6.53;73.23;99227.91;102715;1318;97909;-77
2021/11/19 07:24:38;;;;;;;10.20;5.00;;;;;;;6.53;73.39;99222.61;102933;1318;96622;-75
2021/11/19 07:27:08;;;;;;;11.40;4.80;;;;;;;6.55;73.34;99215.85;102850;1320;109225;-73
2021/11/19 07:29:37;;;;;;;10.40;5.10;;;;;;;6.56;73.33;99208.23;102876;1321;95917;-73
2021/11/19 07:32:06;;;;;;;12.30;5.10;;;;;;;6.57;73.61;99210.63;102903;1321;107971;-75
2021/11/19 07:34:34;;;;;;;12.70;5.40;;;;;;;6.59;73.38;99215.80;102891;1319;98024;-76
2021/11/19 07:37:02;;;;;;;13.40;5.50;;;;;;;6.59;73.66;99216.86;102893;1325;97779;-78
2021/11/19 07:39:31;;;;;;;12.60;5.70;;;;;;;6.61;73.61;99215.88;102894;1322;110145;-77
2021/11/19 07:41:59;;;;;;;12.50;5.30;;;;;;;6.63;73.77;99225.45;102821;1321;96023;-75
2021/11/19 07:44:27;;;;;;;13.40;5.30;;;;;;;6.63;73.76;99230.56;102703;1321;107941;-78
2021/11/19 07:46:56;;;;;;;11.50;5.40;;;;;;;6.62;73.65;99229.23;102769;1319;98522;-77
2021/11/19 07:49:24;;;;;;;11.40;5.90;;;;;;;6.62;73.80;99232.19;102746;1319;98533;-77
2021/11/19 07:51:55;;;;;;;11.30;4.40;;;;;;;6.64;73.74;99233.16;102781;1324;111589;-76
2021/11/19 07:54:24;;;;;;;12.50;5.60;;;;;;;6.65;74.05;99228.55;102772;1323;95400;-78
2021/11/19 07:56:52;;;;;;;12.70;5.70;;;;;;;6.66;74.16;99225.28;102761;1319;107897;-74
2021/11/19 07:59:24;;;;;;;12.00;6.00;;;;;;;6.67;74.04;99226.29;102647;1318;95971;-74
2021/11/19 08:01:56;;;;;;;11.70;5.10;;;;;;;6.70;74.18;99230.20;102680;1325;96162;-72
2021/11/19 08:04:26;;;;;;;12.60;5.60;;;;;;;6.71;74.35;99226.08;102643;1324;111114;-75
2021/11/19 08:06:57;;;;;;;11.60;5.40;;;;;;;6.73;74.42;99224.95;102739;1321;97889;-74
2021/11/19 08:09:26;;;;;;;11.60;5.40;;;;;;;6.74;74.68;99217.66;102618;1321;107692;-71
2021/11/19 08:11:55;;;;;;;12.30;5.30;;;;;;;6.75;74.51;99208.11;102806;1318;97908;-74
2021/11/19 08:14:24;;;;;;;12.50;5.70;;;;;;;6.77;74.54;99208.19;102822;1325;96591;-74
2021/11/19 08:17:10;;;;;;;13.10;5.50;;;;;;;6.77;74.94;99209.71;102778;1322;110250;-72
2021/11/19 08:19:44;;;;;;;10.50;5.10;;;;;;;6.78;74.94;99210.21;102827;1318;97978;-76
2021/11/19 08:22:17;;;;;;;14.00;6.80;;;;;;;6.78;75.04;99211.80;102841;1318;107836;-77
2021/11/19 08:24:49;;;;;;;14.70;6.50;;;;;;;6.77;74.93;99203.02;102852;1319;97858;-79
2021/11/19 08:27:25;;;;;;;15.80;7.00;;;;;;;6.79;75.00;99205.05;102840;1319;96452;-75
2021/11/19 08:29:56;;;;;;;15.10;6.60;;;;;;;6.80;74.86;99218.40;102833;1319;111567;-74
2021/11/19 08:32:28;;;;;;;18.70;7.50;;;;;;;6.81;75.07;99220.11;102894;1319;95204;-73
2021/11/19 08:34:56;;;;;;;13.60;6.10;;;;;;;6.80;75.17;99228.59;102862;1325;107903;-72
2021/11/19 08:37:27;;;;;;;13.70;6.60;;;;;;;6.81;75.27;99237.23;102812;1322;98436;-73
2021/11/19 08:39:55;;;;;;;15.20;6.50;;;;;;;6.81;75.39;99243.00;102875;1318;95205;-72
2021/11/19 08:42:25;;;;;;;12.90;5.40;;;;;;;6.82;74.97;99242.44;102856;1319;111213;-77
2021/11/19 08:44:55;;;;;;;14.50;6.40;;;;;;;6.84;75.46;99245.70;102881;1319;98028;-75
2021/11/19 22:11:17;;;;;;;19.70;9.80;;;;;;;9.26;80.24;99085.29;102890;1317;97918;-72
2021/11/19 22:13:47;;;;;;;17.40;8.90;;;;;;;9.26;80.11;99088.81;102676;1322;107577;-72
2021/11/19 22:16:17;;;;;;;19.70;9.00;;;;;;;9.26;80.13;99084.78;102650;1320;97909;-72
2021/11/19 22:18:58;;;;;;;19.10;8.60;;;;;;;9.24;80.11;99087.55;102699;1316;97914;-73
2021/11/19 22:21:36;;;;;;;19.40;9.50;;;;;;;9.22;80.22;99091.54;102676;1322;112577;-72
2021/11/19 22:24:07;;;;;;;18.80;9.50;;;;;;;9.21;80.17;99091.42;102647;1321;97990;-73
2021/11/19 22:26:37;;;;;;;19.40;9.60;;;;;;;9.20;80.17;99081.25;102668;1320;107973;-72
2021/11/19 22:29:08;;;;;;;20.30;9.20;;;;;;;9.17;80.16;99086.02;102643;1321;95279;-73
2021/11/19 22:31:44;;;;;;;18.40;9.30;;;;;;;9.16;80.14;99080.85;102655;1321;97910;-72
2021/11/19 22:34:16;;;;;;;19.40;9.00;;;;;;;9.15;80.20;99082.86;102659;1322;111514;-73
2021/11/19 22:36:48;;;;;;;16.80;8.20;;;;;;;9.12;80.05;99077.18;102731;1321;97559;-73
2021/11/19 22:39:25;;;;;;;18.80;9.30;;;;;;;9.11;80.11;99077.28;102719;1319;109000;-74
2021/11/19 22:41:57;;;;;;;19.50;8.80;;;;;;;9.08;80.20;99083.80;102645;1322;96443;-73
2021/11/19 22:44:31;;;;;;;17.80;9.00;;;;;;;9.07;80.10;99086.16;102778;1321;98071;-72
2021/11/19 22:46:59;;;;;;;19.30;9.20;;;;;;;9.07;80.23;99083.90;102559;1324;111306;-72
2021/11/19 22:49:32;;;;;;;18.60;9.00;;;;;;;9.06;80.19;99082.02;102683;1322;97928;-70
2021/11/19 22:51:59;;;;;;;20.60;9.80;;;;;;;9.05;80.14;99076.40;102701;1321;107650;-71
2021/11/19 22:54:30;;;;;;;20.30;10.10;;;;;;;9.04;80.14;99077.88;102630;1322;97926;-71
2021/11/19 22:57:02;;;;;;;19.20;9.30;;;;;;;9.02;80.23;99072.86;102646;1324;97981;-71
2021/11/19 22:59:36;;;;;;;19.70;9.70;;;;;;;9.01;80.30;99077.17;102715;1322;111702;-71
2021/11/19 23:02:13;;;;;;;20.50;10.10;;;;;;;9.00;80.29;99074.95;102711;1320;97847;-72
2021/11/19 23:04:48;;;;;;;21.30;9.60;;;;;;;9.00;80.22;99077.79;102567;1322;107850;-71
2021/11/19 23:07:22;;;;;;;20.00;9.40;;;;;;;9.01;80.20;99073.50;102484;1319;96967;-71
2021/11/19 23:09:59;;;;;;;18.40;9.10;;;;;;;9.02;80.31;99082.44;102567;1323;97906;-70
2021/11/19 23:12:30;;;;;;;19.40;9.20;;;;;;;9.04;80.37;99072.80;102670;1325;111623;-70
2021/11/19 23:15:03;;;;;;;19.00;8.60;;;;;;;9.04;80.34;99067.25;102618;1322;97890;-71
2021/11/19 23:17:35;;;;;;;20.70;8.40;;;;;;;9.06;80.34;99066.77;102656;1317;106597;-70
2021/11/19 23:20:15;;;;;;;17.90;8.60;;;;;;;9.08;80.36;99067.18;102721;1321;97866;-73
2021/11/19 23:22:43;;;;;;;18.20;8.30;;;;;;;9.10;80.34;99069.02;102673;1324;97922;-70
2021/11/19 23:25:22;;;;;;;16.80;7.90;;;;;;;9.12;80.37;99055.11;102656;1325;111614;-72
2021/11/19 23:27:54;;;;;;;15.00;7.00;;;;;;;9.14;80.33;99054.09;102789;1321;97889;-71
2021/11/19 23:30:40;;;;;;;14.50;6.70;;;;;;;9.16;80.33;99043.16;102756;1324;107259;-70
2021/11/19 23:33:09;;;;;;;14.50;7.40;;;;;;;9.17;80.24;99046.58;102699;1321;98025;-70
2021/11/19 23:35:42;;;;;;;17.00;6.80;;;;;;;9.21;80.44;99044.93;102691;1321;97073;-71
2021/11/19 23:38:11;;;;;;;15.20;6.80;;;;;;;9.24;80.53;99042.91;102745;1321;111513;-70
2021/11/19 23:40:41;;;;;;;14.50;7.30;;;;;;;9.27;80.42;99043.27;102762;1321;98025;-70
2021/11/19 23:43:18;;;;;;;15.70;7.50;;;;;;;9.30;80.42;99045.56;102699;1321;107822;-70
2021/11/19 23:45:52;;;;;;;15.30;6.80;;;;;;;9.32;80.43;99036.59;102796;1322;97922;-70
2021/11/19 23:48:23;;;;;;;15.80;7.60;;;;;;;9.34;80.45;99035.41;102760;1321;98050;-71
2021/11/19 23:50:54;;;;;;;15.00;6.90;;;;;;;9.36;80.36;99039.84;102765;1326;111690;-70
2021/11/19 23:53:30;;;;;;;14.30;6.60;;;;;;;9.38;80.45;99037.77;102801;1321;98613;-71
2021/11/19 23:55:59;;;;;;;13.40;6.60;;;;;;;9.40;80.47;99043.98;103860;1321;106441;-72
2021/11/19 23:58:30;;;;;;;14.60;6.10;;;;;;;9.42;80.40;99032.00;102723;1322;98044;-70
